Terminal Aerodrome Forecast
Issued by NWS Central Illinois

Home | Current Version | Previous Version | Text Only | Print | Product List | Glossary On
Versions: 1 2 3 4 5 6 7 8 9 10 11 12 13
000
FTUS43 KILX 221141
TAFPIA
TAF
KPIA 221141Z 2212/2312 07012KT P6SM BKN200
     FM221800 08012G20KT P6SM BKN120
     FM230000 07010KT P6SM BKN120=

USA.gov is the U.S. government's official web portal to all federal, state and local government web resources and services.